sensor_id;sensor_type;location;lat;lon;timestamp;P1;durP1;ratioP1;P2;durP2;ratioP2
41229;SDS011;26964;50.428;19.218;2023-11-19T00:00:53;44.9;;;23.7;;
41229;SDS011;26964;50.428;19.218;2023-11-19T00:01:53;27.2;;;17.7;;
41229;SDS011;26964;50.428;19.218;2023-11-19T00:02:53;21.5;;;14.9;;
41229;SDS011;26964;50.428;19.218;2023-11-19T00:03:53;28.8;;;18.1;;
41229;SDS011;26964;50.428;19.218;2023-11-19T00:04:53;30.6;;;18.5;;
41229;SDS011;26964;50.428;19.218;2023-11-19T00:05:53;20.9;;;15.1;;
41229;SDS011;26964;50.428;19.218;2023-11-19T00:06:53;21.7;;;14.2;;
41229;SDS011;26964;50.428;19.218;2023-11-19T00:08:01;20.6;;;13.8;;
41229;SDS011;26964;50.428;19.218;2023-11-19T00:08:53;18.6;;;13.2;;
41229;SDS011;26964;50.428;19.218;2023-11-19T00:09:53;19.3;;;13.4;;
41229;SDS011;26964;50.428;19.218;2023-11-19T00:10:53;18.9;;;13.4;;
41229;SDS011;26964;50.428;19.218;2023-11-19T00:11:53;20.1;;;13.7;;
41229;SDS011;26964;50.428;19.218;2023-11-19T00:12:53;18.8;;;13.8;;
41229;SDS011;26964;50.428;19.218;2023-11-19T00:13:53;19.1;;;13.9;;
41229;SDS011;26964;50.428;19.218;2023-11-19T00:14:53;18.7;;;13.2;;
41229;SDS011;26964;50.428;19.218;2023-11-19T00:15:53;18.1;;;13.2;;
41229;SDS011;26964;50.428;19.218;2023-11-19T00:16:53;21.0;;;14.8;;
41229;SDS011;26964;50.428;19.218;2023-11-19T00:17:53;20.3;;;13.2;;
41229;SDS011;26964;50.428;19.218;2023-11-19T00:18:53;20.2;;;14.7;;
41229;SDS011;26964;50.428;19.218;2023-11-19T00:19:53;18.8;;;13.9;;
41229;SDS011;26964;50.428;19.218;2023-11-19T00:20:55;21.8;;;14.5;;
41229;SDS011;26964;50.428;19.218;2023-11-19T00:21:53;19.6;;;14.2;;
41229;SDS011;26964;50.428;19.218;2023-11-19T00:22:53;24.9;;;16.2;;
41229;SDS011;26964;50.428;19.218;2023-11-19T00:23:53;24.4;;;16.1;;
41229;SDS011;26964;50.428;19.218;2023-11-19T00:24:54;20.9;;;14.9;;
41229;SDS011;26964;50.428;19.218;2023-11-19T00:25:53;22.3;;;15.0;;
41229;SDS011;26964;50.428;19.218;2023-11-19T00:26:53;24.3;;;16.1;;
41229;SDS011;26964;50.428;19.218;2023-11-19T00:27:54;22.9;;;15.5;;
41229;SDS011;26964;50.428;19.218;2023-11-19T00:28:53;22.1;;;14.3;;
41229;SDS011;26964;50.428;19.218;2023-11-19T00:29:53;21.3;;;13.9;;
41229;SDS011;26964;50.428;19.218;2023-11-19T00:30:53;20.5;;;14.4;;
41229;SDS011;26964;50.428;19.218;2023-11-19T00:31:53;19.4;;;13.7;;
41229;SDS011;26964;50.428;19.218;2023-11-19T00:32:53;22.5;;;14.5;;
41229;SDS011;26964;50.428;19.218;2023-11-19T00:33:53;20.3;;;14.3;;
41229;SDS011;26964;50.428;19.218;2023-11-19T00:34:53;21.3;;;14.3;;
41229;SDS011;26964;50.428;19.218;2023-11-19T00:35:53;21.3;;;14.2;;
41229;SDS011;26964;50.428;19.218;2023-11-19T00:36:54;21.4;;;14.8;;
41229;SDS011;26964;50.428;19.218;2023-11-19T00:37:53;21.9;;;14.3;;
41229;SDS011;26964;50.428;19.218;2023-11-19T00:38:54;22.3;;;15.2;;
41229;SDS011;26964;50.428;19.218;2023-11-19T00:39:53;22.1;;;14.5;;
41229;SDS011;26964;50.428;19.218;2023-11-19T00:40:53;20.1;;;13.9;;
41229;SDS011;26964;50.428;19.218;2023-11-19T00:41:53;20.1;;;14.0;;
41229;SDS011;26964;50.428;19.218;2023-11-19T00:42:53;20.7;;;13.3;;
41229;SDS011;26964;50.428;19.218;2023-11-19T00:43:53;21.4;;;13.6;;
41229;SDS011;26964;50.428;19.218;2023-11-19T00:44:53;22.0;;;15.1;;
41229;SDS011;26964;50.428;19.218;2023-11-19T00:45:53;20.5;;;13.5;;
41229;SDS011;26964;50.428;19.218;2023-11-19T00:46:53;20.7;;;14.2;;
41229;SDS011;26964;50.428;19.218;2023-11-19T00:47:53;20.6;;;13.9;;
41229;SDS011;26964;50.428;19.218;2023-11-19T00:48:53;20.2;;;14.5;;
41229;SDS011;26964;50.428;19.218;2023-11-19T00:49:53;19.8;;;13.8;;
41229;SDS011;26964;50.428;19.218;2023-11-19T00:50:53;22.0;;;14.4;;
41229;SDS011;26964;50.428;19.218;2023-11-19T00:51:53;21.1;;;14.6;;
41229;SDS011;26964;50.428;19.218;2023-11-19T00:52:53;24.0;;;15.5;;
41229;SDS011;26964;50.428;19.218;2023-11-19T00:53:53;21.7;;;14.7;;
41229;SDS011;26964;50.428;19.218;2023-11-19T00:54:53;21.0;;;14.9;;
41229;SDS011;26964;50.428;19.218;2023-11-19T00:55:53;24.4;;;15.9;;
41229;SDS011;26964;50.428;19.218;2023-11-19T00:56:53;25.1;;;17.0;;
41229;SDS011;26964;50.428;19.218;2023-11-19T00:57:53;28.5;;;19.0;;
41229;SDS011;26964;50.428;19.218;2023-11-19T00:58:53;27.0;;;19.0;;
41229;SDS011;26964;50.428;19.218;2023-11-19T00:59:53;28.2;;;20.3;;
41229;SDS011;26964;50.428;19.218;2023-11-19T01:00:53;27.8;;;20.0;;
41229;SDS011;26964;50.428;19.218;2023-11-19T01:01:53;30.1;;;20.4;;
41229;SDS011;26964;50.428;19.218;2023-11-19T01:02:53;30.3;;;20.5;;
41229;SDS011;26964;50.428;19.218;2023-11-19T01:03:53;30.9;;;20.3;;
41229;SDS011;26964;50.428;19.218;2023-11-19T01:04:53;30.0;;;19.6;;
41229;SDS011;26964;50.428;19.218;2023-11-19T01:05:53;31.8;;;20.7;;
41229;SDS011;26964;50.428;19.218;2023-11-19T01:06:53;30.9;;;20.2;;
41229;SDS011;26964;50.428;19.218;2023-11-19T01:07:53;27.9;;;19.3;;
41229;SDS011;26964;50.428;19.218;2023-11-19T01:08:53;25.8;;;18.2;;
41229;SDS011;26964;50.428;19.218;2023-11-19T01:09:53;28.8;;;18.5;;
41229;SDS011;26964;50.428;19.218;2023-11-19T01:10:53;28.0;;;18.8;;
41229;SDS011;26964;50.428;19.218;2023-11-19T01:11:53;26.7;;;18.0;;
41229;SDS011;26964;50.428;19.218;2023-11-19T01:12:53;26.4;;;17.6;;
41229;SDS011;26964;50.428;19.218;2023-11-19T01:13:53;25.3;;;17.2;;
41229;SDS011;26964;50.428;19.218;2023-11-19T01:14:53;26.1;;;17.9;;
41229;SDS011;26964;50.428;19.218;2023-11-19T01:15:53;27.5;;;19.0;;
41229;SDS011;26964;50.428;19.218;2023-11-19T01:16:53;29.0;;;18.5;;
41229;SDS011;26964;50.428;19.218;2023-11-19T01:17:56;33.9;;;22.8;;
41229;SDS011;26964;50.428;19.218;2023-11-19T01:18:53;42.3;;;25.7;;
41229;SDS011;26964;50.428;19.218;2023-11-19T01:19:53;31.2;;;21.9;;
41229;SDS011;26964;50.428;19.218;2023-11-19T01:20:53;48.4;;;32.4;;
41229;SDS011;26964;50.428;19.218;2023-11-19T01:21:53;49.3;;;32.5;;
41229;SDS011;26964;50.428;19.218;2023-11-19T01:22:53;30.1;;;21.1;;
41229;SDS011;26964;50.428;19.218;2023-11-19T01:23:53;25.7;;;17.7;;
41229;SDS011;26964;50.428;19.218;2023-11-19T01:24:53;28.7;;;18.7;;
41229;SDS011;26964;50.428;19.218;2023-11-19T01:25:53;27.9;;;19.4;;
41229;SDS011;26964;50.428;19.218;2023-11-19T01:26:53;25.8;;;17.9;;
41229;SDS011;26964;50.428;19.218;2023-11-19T01:27:53;38.1;;;24.4;;
41229;SDS011;26964;50.428;19.218;2023-11-19T01:28:53;31.7;;;22.6;;
41229;SDS011;26964;50.428;19.218;2023-11-19T01:29:53;30.3;;;20.5;;
41229;SDS011;26964;50.428;19.218;2023-11-19T01:30:54;33.9;;;23.1;;
41229;SDS011;26964;50.428;19.218;2023-11-19T01:31:53;36.9;;;24.5;;
41229;SDS011;26964;50.428;19.218;2023-11-19T01:32:53;31.3;;;20.7;;
41229;SDS011;26964;50.428;19.218;2023-11-19T01:33:53;31.1;;;20.9;;
41229;SDS011;26964;50.428;19.218;2023-11-19T01:34:53;31.0;;;21.0;;
41229;SDS011;26964;50.428;19.218;2023-11-19T01:35:53;30.3;;;21.3;;
41229;SDS011;26964;50.428;19.218;2023-11-19T01:36:53;29.3;;;20.0;;
41229;SDS011;26964;50.428;19.218;2023-11-19T01:37:59;29.3;;;20.3;;
41229;SDS011;26964;50.428;19.218;2023-11-19T01:38:53;28.4;;;19.8;;
41229;SDS011;26964;50.428;19.218;2023-11-19T01:39:53;28.7;;;20.2;;
41229;SDS011;26964;50.428;19.218;2023-11-19T01:41:53;34.7;;;21.5;;
41229;SDS011;26964;50.428;19.218;2023-11-19T01:42:54;43.9;;;26.5;;
41229;SDS011;26964;50.428;19.218;2023-11-19T01:43:53;128.4;;;69.2;;
41229;SDS011;26964;50.428;19.218;2023-11-19T01:45:53;66.7;;;37.7;;
41229;SDS011;26964;50.428;19.218;2023-11-19T01:46:58;58.6;;;32.4;;
41229;SDS011;26964;50.428;19.218;2023-11-19T01:47:53;59.7;;;30.4;;
41229;SDS011;26964;50.428;19.218;2023-11-19T01:48:53;59.3;;;33.5;;
41229;SDS011;26964;50.428;19.218;2023-11-19T01:49:53;55.7;;;33.0;;
41229;SDS011;26964;50.428;19.218;2023-11-19T01:50:53;56.6;;;33.4;;
41229;SDS011;26964;50.428;19.218;2023-11-19T01:51:53;50.6;;;29.5;;
41229;SDS011;26964;50.428;19.218;2023-11-19T01:52:54;52.2;;;29.5;;
41229;SDS011;26964;50.428;19.218;2023-11-19T01:53:53;47.5;;;29.0;;
41229;SDS011;26964;50.428;19.218;2023-11-19T01:54:53;46.3;;;27.6;;
41229;SDS011;26964;50.428;19.218;2023-11-19T01:55:53;47.6;;;28.2;;
41229;SDS011;26964;50.428;19.218;2023-11-19T01:56:53;44.1;;;26.9;;
41229;SDS011;26964;50.428;19.218;2023-11-19T01:57:53;50.3;;;27.9;;
41229;SDS011;26964;50.428;19.218;2023-11-19T01:58:53;39.2;;;23.7;;
41229;SDS011;26964;50.428;19.218;2023-11-19T01:59:53;37.8;;;22.9;;
41229;SDS011;26964;50.428;19.218;2023-11-19T02:00:53;36.1;;;22.7;;
41229;SDS011;26964;50.428;19.218;2023-11-19T02:01:53;32.8;;;21.1;;
41229;SDS011;26964;50.428;19.218;2023-11-19T02:02:53;32.7;;;21.5;;
41229;SDS011;26964;50.428;19.218;2023-11-19T02:04:02;35.5;;;22.0;;
41229;SDS011;26964;50.428;19.218;2023-11-19T02:04:53;35.1;;;21.7;;
41229;SDS011;26964;50.428;19.218;2023-11-19T02:05:53;32.9;;;21.8;;
41229;SDS011;26964;50.428;19.218;2023-11-19T02:06:53;34.5;;;22.0;;
41229;SDS011;26964;50.428;19.218;2023-11-19T02:07:53;29.8;;;21.1;;
41229;SDS011;26964;50.428;19.218;2023-11-19T02:08:53;32.8;;;21.2;;
41229;SDS011;26964;50.428;19.218;2023-11-19T02:09:53;35.5;;;22.4;;
41229;SDS011;26964;50.428;19.218;2023-11-19T02:10:53;34.1;;;21.9;;
41229;SDS011;26964;50.428;19.218;2023-11-19T02:11:53;32.2;;;22.0;;
41229;SDS011;26964;50.428;19.218;2023-11-19T02:12:53;40.9;;;24.4;;
41229;SDS011;26964;50.428;19.218;2023-11-19T02:13:53;32.8;;;21.6;;
41229;SDS011;26964;50.428;19.218;2023-11-19T02:14:53;31.4;;;21.6;;
41229;SDS011;26964;50.428;19.218;2023-11-19T02:15:53;32.2;;;21.8;;
41229;SDS011;26964;50.428;19.218;2023-11-19T02:16:53;33.6;;;22.1;;
41229;SDS011;26964;50.428;19.218;2023-11-19T02:17:54;30.9;;;21.7;;
41229;SDS011;26964;50.428;19.218;2023-11-19T02:18:53;33.1;;;22.7;;
41229;SDS011;26964;50.428;19.218;2023-11-19T02:19:53;34.7;;;22.5;;
41229;SDS011;26964;50.428;19.218;2023-11-19T02:20:53;38.9;;;25.3;;
41229;SDS011;26964;50.428;19.218;2023-11-19T02:21:53;39.7;;;26.7;;
41229;SDS011;26964;50.428;19.218;2023-11-19T02:22:53;36.6;;;24.8;;
41229;SDS011;26964;50.428;19.218;2023-11-19T02:23:53;38.6;;;26.9;;
41229;SDS011;26964;50.428;19.218;2023-11-19T02:24:54;36.5;;;24.5;;
41229;SDS011;26964;50.428;19.218;2023-11-19T02:26:55;36.7;;;24.4;;
41229;SDS011;26964;50.428;19.218;2023-11-19T02:28:53;36.7;;;24.2;;
41229;SDS011;26964;50.428;19.218;2023-11-19T02:29:53;37.0;;;24.3;;
41229;SDS011;26964;50.428;19.218;2023-11-19T02:30:53;34.7;;;24.4;;
41229;SDS011;26964;50.428;19.218;2023-11-19T02:31:53;33.8;;;24.2;;
41229;SDS011;26964;50.428;19.218;2023-11-19T02:32:53;34.6;;;23.2;;
41229;SDS011;26964;50.428;19.218;2023-11-19T02:33:53;37.0;;;23.6;;
41229;SDS011;26964;50.428;19.218;2023-11-19T02:34:53;36.5;;;25.0;;
41229;SDS011;26964;50.428;19.218;2023-11-19T02:35:53;38.4;;;24.3;;
41229;SDS011;26964;50.428;19.218;2023-11-19T02:36:53;33.4;;;23.9;;
41229;SDS011;26964;50.428;19.218;2023-11-19T02:37:54;35.7;;;24.0;;
41229;SDS011;26964;50.428;19.218;2023-11-19T02:38:53;34.0;;;23.8;;
41229;SDS011;26964;50.428;19.218;2023-11-19T02:39:53;35.6;;;25.0;;
41229;SDS011;26964;50.428;19.218;2023-11-19T02:40:53;33.0;;;23.2;;
41229;SDS011;26964;50.428;19.218;2023-11-19T02:41:53;35.8;;;23.6;;
41229;SDS011;26964;50.428;19.218;2023-11-19T02:42:53;32.2;;;22.9;;
41229;SDS011;26964;50.428;19.218;2023-11-19T02:43:53;32.2;;;21.1;;
41229;SDS011;26964;50.428;19.218;2023-11-19T02:44:53;31.0;;;21.4;;
41229;SDS011;26964;50.428;19.218;2023-11-19T02:45:53;35.2;;;22.0;;
41229;SDS011;26964;50.428;19.218;2023-11-19T02:47:53;31.2;;;20.8;;
41229;SDS011;26964;50.428;19.218;2023-11-19T02:48:53;33.1;;;21.1;;
41229;SDS011;26964;50.428;19.218;2023-11-19T02:50:03;33.4;;;21.8;;
41229;SDS011;26964;50.428;19.218;2023-11-19T02:50:53;33.2;;;21.3;;
41229;SDS011;26964;50.428;19.218;2023-11-19T02:51:53;33.6;;;21.2;;
41229;SDS011;26964;50.428;19.218;2023-11-19T02:52:53;32.3;;;21.0;;
41229;SDS011;26964;50.428;19.218;2023-11-19T02:53:53;31.0;;;20.4;;
41229;SDS011;26964;50.428;19.218;2023-11-19T02:54:53;30.3;;;20.2;;
41229;SDS011;26964;50.428;19.218;2023-11-19T02:55:53;30.7;;;19.3;;
41229;SDS011;26964;50.428;19.218;2023-11-19T02:56:53;31.2;;;20.5;;
41229;SDS011;26964;50.428;19.218;2023-11-19T02:57:53;30.0;;;19.5;;
41229;SDS011;26964;50.428;19.218;2023-11-19T02:58:53;27.7;;;18.3;;
41229;SDS011;26964;50.428;19.218;2023-11-19T02:59:53;28.7;;;20.1;;
41229;SDS011;26964;50.428;19.218;2023-11-19T03:00:53;29.3;;;17.9;;
41229;SDS011;26964;50.428;19.218;2023-11-19T03:01:53;27.9;;;18.8;;
41229;SDS011;26964;50.428;19.218;2023-11-19T03:02:53;28.0;;;18.9;;
41229;SDS011;26964;50.428;19.218;2023-11-19T03:03:53;31.0;;;20.2;;
41229;SDS011;26964;50.428;19.218;2023-11-19T03:04:53;28.0;;;18.3;;
41229;SDS011;26964;50.428;19.218;2023-11-19T03:05:53;27.9;;;18.5;;
41229;SDS011;26964;50.428;19.218;2023-11-19T03:06:53;29.6;;;19.5;;
41229;SDS011;26964;50.428;19.218;2023-11-19T03:07:58;34.4;;;20.8;;
41229;SDS011;26964;50.428;19.218;2023-11-19T03:08:54;29.9;;;20.3;;
41229;SDS011;26964;50.428;19.218;2023-11-19T03:09:53;30.5;;;19.8;;
41229;SDS011;26964;50.428;19.218;2023-11-19T03:10:53;31.8;;;20.6;;
41229;SDS011;26964;50.428;19.218;2023-11-19T03:11:53;27.3;;;19.0;;
41229;SDS011;26964;50.428;19.218;2023-11-19T03:12:53;29.1;;;18.6;;
41229;SDS011;26964;50.428;19.218;2023-11-19T03:13:53;28.7;;;19.1;;
41229;SDS011;26964;50.428;19.218;2023-11-19T03:14:53;29.2;;;19.8;;
41229;SDS011;26964;50.428;19.218;2023-11-19T03:15:53;25.3;;;17.7;;
41229;SDS011;26964;50.428;19.218;2023-11-19T03:16:53;25.9;;;18.3;;
41229;SDS011;26964;50.428;19.218;2023-11-19T03:17:53;27.4;;;19.0;;
41229;SDS011;26964;50.428;19.218;2023-11-19T03:18:53;28.0;;;19.4;;
41229;SDS011;26964;50.428;19.218;2023-11-19T03:19:53;27.8;;;19.0;;
41229;SDS011;26964;50.428;19.218;2023-11-19T03:20:53;29.3;;;19.7;;
41229;SDS011;26964;50.428;19.218;2023-11-19T03:21:53;26.3;;;19.2;;
41229;SDS011;26964;50.428;19.218;2023-11-19T03:22:53;27.8;;;18.6;;
41229;SDS011;26964;50.428;19.218;2023-11-19T03:23:53;28.0;;;18.9;;
41229;SDS011;26964;50.428;19.218;2023-11-19T03:25:10;27.9;;;19.6;;
41229;SDS011;26964;50.428;19.218;2023-11-19T03:25:53;28.1;;;17.5;;
41229;SDS011;26964;50.428;19.218;2023-11-19T03:26:53;29.6;;;18.9;;
41229;SDS011;26964;50.428;19.218;2023-11-19T03:27:53;26.0;;;18.1;;
41229;SDS011;26964;50.428;19.218;2023-11-19T03:28:53;28.2;;;19.1;;
41229;SDS011;26964;50.428;19.218;2023-11-19T03:29:53;30.2;;;19.7;;
41229;SDS011;26964;50.428;19.218;2023-11-19T03:30:59;29.2;;;19.5;;
41229;SDS011;26964;50.428;19.218;2023-11-19T03:31:53;26.8;;;18.1;;
41229;SDS011;26964;50.428;19.218;2023-11-19T03:32:53;31.4;;;20.1;;
41229;SDS011;26964;50.428;19.218;2023-11-19T03:33:53;29.2;;;19.3;;
41229;SDS011;26964;50.428;19.218;2023-11-19T03:34:53;27.9;;;19.1;;
41229;SDS011;26964;50.428;19.218;2023-11-19T03:35:53;29.4;;;19.5;;
41229;SDS011;26964;50.428;19.218;2023-11-19T03:36:53;27.4;;;18.5;;
41229;SDS011;26964;50.428;19.218;2023-11-19T03:37:53;30.1;;;19.2;;
41229;SDS011;26964;50.428;19.218;2023-11-19T03:38:53;29.0;;;19.0;;
41229;SDS011;26964;50.428;19.218;2023-11-19T03:39:53;29.3;;;18.6;;
41229;SDS011;26964;50.428;19.218;2023-11-19T03:40:53;28.1;;;18.4;;
41229;SDS011;26964;50.428;19.218;2023-11-19T03:41:53;24.5;;;18.0;;
41229;SDS011;26964;50.428;19.218;2023-11-19T03:42:53;25.6;;;18.7;;
41229;SDS011;26964;50.428;19.218;2023-11-19T03:43:53;26.6;;;19.2;;
41229;SDS011;26964;50.428;19.218;2023-11-19T03:44:53;27.3;;;17.9;;
41229;SDS011;26964;50.428;19.218;2023-11-19T03:45:53;27.1;;;18.3;;
41229;SDS011;26964;50.428;19.218;2023-11-19T03:46:53;27.4;;;19.2;;
41229;SDS011;26964;50.428;19.218;2023-11-19T03:47:53;25.6;;;17.4;;
41229;SDS011;26964;50.428;19.218;2023-11-19T03:48:53;29.8;;;19.7;;
41229;SDS011;26964;50.428;19.218;2023-11-19T03:49:53;27.2;;;19.0;;
41229;SDS011;26964;50.428;19.218;2023-11-19T03:50:53;27.3;;;18.7;;
41229;SDS011;26964;50.428;19.218;2023-11-19T03:51:53;30.3;;;20.2;;
41229;SDS011;26964;50.428;19.218;2023-11-19T03:52:53;27.4;;;19.7;;
41229;SDS011;26964;50.428;19.218;2023-11-19T03:53:53;29.6;;;19.8;;
41229;SDS011;26964;50.428;19.218;2023-11-19T03:54:53;29.6;;;19.6;;
41229;SDS011;26964;50.428;19.218;2023-11-19T03:55:53;30.6;;;20.4;;
41229;SDS011;26964;50.428;19.218;2023-11-19T03:56:53;28.0;;;19.2;;
41229;SDS011;26964;50.428;19.218;2023-11-19T03:57:53;30.5;;;20.1;;
41229;SDS011;26964;50.428;19.218;2023-11-19T03:58:53;28.5;;;18.9;;
41229;SDS011;26964;50.428;19.218;2023-11-19T03:59:53;31.2;;;20.7;;
41229;SDS011;26964;50.428;19.218;2023-11-19T04:00:53;30.0;;;19.9;;
41229;SDS011;26964;50.428;19.218;2023-11-19T04:01:53;31.0;;;19.5;;
41229;SDS011;26964;50.428;19.218;2023-11-19T04:03:19;31.2;;;20.7;;
41229;SDS011;26964;50.428;19.218;2023-11-19T04:03:53;29.6;;;19.6;;
41229;SDS011;26964;50.428;19.218;2023-11-19T04:04:53;31.7;;;21.2;;
41229;SDS011;26964;50.428;19.218;2023-11-19T04:05:53;27.3;;;18.9;;
41229;SDS011;26964;50.428;19.218;2023-11-19T04:06:53;31.1;;;20.8;;
41229;SDS011;26964;50.428;19.218;2023-11-19T04:08:10;30.7;;;19.7;;
41229;SDS011;26964;50.428;19.218;2023-11-19T04:08:53;30.5;;;20.3;;
41229;SDS011;26964;50.428;19.218;2023-11-19T04:09:53;30.3;;;20.6;;
41229;SDS011;26964;50.428;19.218;2023-11-19T04:10:53;31.9;;;22.1;;
41229;SDS011;26964;50.428;19.218;2023-11-19T04:11:53;30.3;;;21.4;;
41229;SDS011;26964;50.428;19.218;2023-11-19T04:12:53;33.1;;;21.5;;
41229;SDS011;26964;50.428;19.218;2023-11-19T04:13:53;32.6;;;21.3;;
41229;SDS011;26964;50.428;19.218;2023-11-19T04:14:53;30.7;;;20.3;;
41229;SDS011;26964;50.428;19.218;2023-11-19T04:15:53;30.7;;;20.7;;
41229;SDS011;26964;50.428;19.218;2023-11-19T04:16:53;28.5;;;19.5;;
41229;SDS011;26964;50.428;19.218;2023-11-19T04:17:53;30.5;;;20.0;;
41229;SDS011;26964;50.428;19.218;2023-11-19T04:18:53;30.2;;;19.3;;
41229;SDS011;26964;50.428;19.218;2023-11-19T04:19:53;27.9;;;18.4;;
41229;SDS011;26964;50.428;19.218;2023-11-19T04:20:53;29.4;;;19.3;;
41229;SDS011;26964;50.428;19.218;2023-11-19T04:21:53;26.5;;;17.9;;
41229;SDS011;26964;50.428;19.218;2023-11-19T04:22:53;28.0;;;18.5;;
41229;SDS011;26964;50.428;19.218;2023-11-19T04:23:53;28.0;;;18.8;;
41229;SDS011;26964;50.428;19.218;2023-11-19T04:24:53;29.9;;;17.4;;
41229;SDS011;26964;50.428;19.218;2023-11-19T04:25:53;29.7;;;19.5;;
41229;SDS011;26964;50.428;19.218;2023-11-19T04:26:53;34.7;;;20.2;;
41229;SDS011;26964;50.428;19.218;2023-11-19T04:27:53;31.5;;;19.2;;
41229;SDS011;26964;50.428;19.218;2023-11-19T04:28:53;31.6;;;19.9;;
41229;SDS011;26964;50.428;19.218;2023-11-19T04:29:54;33.1;;;19.9;;
41229;SDS011;26964;50.428;19.218;2023-11-19T04:30:53;32.6;;;19.4;;
41229;SDS011;26964;50.428;19.218;2023-11-19T04:31:53;31.2;;;19.4;;
41229;SDS011;26964;50.428;19.218;2023-11-19T04:32:53;32.8;;;19.8;;
41229;SDS011;26964;50.428;19.218;2023-11-19T04:33:53;28.7;;;19.4;;
41229;SDS011;26964;50.428;19.218;2023-11-19T04:34:53;29.5;;;19.9;;
41229;SDS011;26964;50.428;19.218;2023-11-19T04:35:53;29.7;;;19.5;;
41229;SDS011;26964;50.428;19.218;2023-11-19T04:36:53;28.5;;;19.3;;
41229;SDS011;26964;50.428;19.218;2023-11-19T04:37:53;32.4;;;19.1;;
41229;SDS011;26964;50.428;19.218;2023-11-19T04:40:55;30.1;;;18.8;;
41229;SDS011;26964;50.428;19.218;2023-11-19T04:41:53;32.3;;;21.8;;
41229;SDS011;26964;50.428;19.218;2023-11-19T04:42:53;32.3;;;20.7;;
41229;SDS011;26964;50.428;19.218;2023-11-19T04:43:53;32.7;;;21.6;;
41229;SDS011;26964;50.428;19.218;2023-11-19T04:44:53;35.1;;;22.0;;
41229;SDS011;26964;50.428;19.218;2023-11-19T04:45:54;33.2;;;21.5;;
41229;SDS011;26964;50.428;19.218;2023-11-19T04:46:53;31.2;;;20.5;;
41229;SDS011;26964;50.428;19.218;2023-11-19T04:47:53;34.3;;;20.7;;
41229;SDS011;26964;50.428;19.218;2023-11-19T04:48:53;32.1;;;21.0;;
41229;SDS011;26964;50.428;19.218;2023-11-19T04:50:06;28.3;;;19.2;;
41229;SDS011;26964;50.428;19.218;2023-11-19T04:50:53;29.3;;;20.1;;
41229;SDS011;26964;50.428;19.218;2023-11-19T04:51:53;28.1;;;18.3;;
41229;SDS011;26964;50.428;19.218;2023-11-19T04:52:53;24.8;;;17.7;;
41229;SDS011;26964;50.428;19.218;2023-11-19T04:53:53;27.5;;;17.8;;
41229;SDS011;26964;50.428;19.218;2023-11-19T04:54:53;24.0;;;15.7;;
41229;SDS011;26964;50.428;19.218;2023-11-19T04:55:53;25.4;;;16.1;;
41229;SDS011;26964;50.428;19.218;2023-11-19T04:56:53;28.0;;;17.1;;
41229;SDS011;26964;50.428;19.218;2023-11-19T04:57:53;22.7;;;15.9;;
41229;SDS011;26964;50.428;19.218;2023-11-19T04:58:53;26.2;;;16.8;;
41229;SDS011;26964;50.428;19.218;2023-11-19T04:59:53;20.7;;;14.6;;
41229;SDS011;26964;50.428;19.218;2023-11-19T05:00:53;24.3;;;15.1;;
41229;SDS011;26964;50.428;19.218;2023-11-19T05:01:54;20.8;;;15.0;;
41229;SDS011;26964;50.428;19.218;2023-11-19T05:02:53;21.9;;;14.6;;
41229;SDS011;26964;50.428;19.218;2023-11-19T05:03:53;23.7;;;14.4;;
41229;SDS011;26964;50.428;19.218;2023-11-19T05:04:53;22.3;;;14.3;;
41229;SDS011;26964;50.428;19.218;2023-11-19T05:05:53;23.6;;;15.4;;
41229;SDS011;26964;50.428;19.218;2023-11-19T05:07:07;22.2;;;14.5;;
41229;SDS011;26964;50.428;19.218;2023-11-19T05:08:44;22.0;;;14.6;;
41229;SDS011;26964;50.428;19.218;2023-11-19T05:08:54;23.6;;;14.5;;
41229;SDS011;26964;50.428;19.218;2023-11-19T05:10:18;21.3;;;13.9;;
41229;SDS011;26964;50.428;19.218;2023-11-19T05:10:53;20.8;;;13.7;;
41229;SDS011;26964;50.428;19.218;2023-11-19T05:11:53;20.3;;;14.1;;
41229;SDS011;26964;50.428;19.218;2023-11-19T05:12:53;22.8;;;14.6;;
41229;SDS011;26964;50.428;19.218;2023-11-19T05:13:53;24.4;;;15.2;;
41229;SDS011;26964;50.428;19.218;2023-11-19T05:14:53;23.7;;;15.6;;
41229;SDS011;26964;50.428;19.218;2023-11-19T05:15:53;23.6;;;14.9;;
41229;SDS011;26964;50.428;19.218;2023-11-19T05:16:53;24.8;;;16.5;;
41229;SDS011;26964;50.428;19.218;2023-11-19T05:18:06;26.1;;;16.1;;
41229;SDS011;26964;50.428;19.218;2023-11-19T05:18:53;24.6;;;15.7;;
41229;SDS011;26964;50.428;19.218;2023-11-19T05:19:53;23.5;;;15.9;;
41229;SDS011;26964;50.428;19.218;2023-11-19T05:20:53;22.9;;;15.5;;
41229;SDS011;26964;50.428;19.218;2023-11-19T05:21:53;21.2;;;16.1;;
41229;SDS011;26964;50.428;19.218;2023-11-19T05:22:53;25.9;;;16.0;;
41229;SDS011;26964;50.428;19.218;2023-11-19T05:23:53;25.4;;;17.6;;
41229;SDS011;26964;50.428;19.218;2023-11-19T05:24:53;30.9;;;21.0;;
41229;SDS011;26964;50.428;19.218;2023-11-19T05:25:53;52.2;;;36.0;;
41229;SDS011;26964;50.428;19.218;2023-11-19T05:26:53;51.0;;;37.5;;
41229;SDS011;26964;50.428;19.218;2023-11-19T05:28:53;46.2;;;30.7;;
41229;SDS011;26964;50.428;19.218;2023-11-19T05:29:53;39.8;;;28.0;;
41229;SDS011;26964;50.428;19.218;2023-11-19T05:30:54;34.3;;;26.0;;
41229;SDS011;26964;50.428;19.218;2023-11-19T05:31:53;110.7;;;64.6;;
41229;SDS011;26964;50.428;19.218;2023-11-19T05:32:53;210.5;;;116.0;;
41229;SDS011;26964;50.428;19.218;2023-11-19T05:33:53;575.8;;;298.8;;
41229;SDS011;26964;50.428;19.218;2023-11-19T05:34:53;337.1;;;156.6;;
41229;SDS011;26964;50.428;19.218;2023-11-19T05:35:53;176.8;;;82.1;;
41229;SDS011;26964;50.428;19.218;2023-11-19T05:36:54;163.7;;;81.3;;
41229;SDS011;26964;50.428;19.218;2023-11-19T05:37:53;100.2;;;55.3;;
41229;SDS011;26964;50.428;19.218;2023-11-19T05:38:53;92.3;;;55.8;;
41229;SDS011;26964;50.428;19.218;2023-11-19T05:39:53;76.9;;;51.0;;
41229;SDS011;26964;50.428;19.218;2023-11-19T05:40:53;117.8;;;96.9;;
41229;SDS011;26964;50.428;19.218;2023-11-19T05:41:53;137.1;;;122.1;;
41229;SDS011;26964;50.428;19.218;2023-11-19T05:42:53;174.3;;;155.3;;
41229;SDS011;26964;50.428;19.218;2023-11-19T05:43:54;123.0;;;102.4;;
41229;SDS011;26964;50.428;19.218;2023-11-19T05:44:53;137.6;;;101.8;;
41229;SDS011;26964;50.428;19.218;2023-11-19T05:45:53;169.8;;;110.1;;
41229;SDS011;26964;50.428;19.218;2023-11-19T05:46:53;125.8;;;80.7;;
41229;SDS011;26964;50.428;19.218;2023-11-19T05:48:17;112.1;;;68.7;;
41229;SDS011;26964;50.428;19.218;2023-11-19T05:48:53;144.8;;;89.9;;
41229;SDS011;26964;50.428;19.218;2023-11-19T05:49:53;168.7;;;105.0;;
41229;SDS011;26964;50.428;19.218;2023-11-19T05:52:15;163.1;;;104.1;;
41229;SDS011;26964;50.428;19.218;2023-11-19T05:52:54;156.1;;;113.6;;
41229;SDS011;26964;50.428;19.218;2023-11-19T05:53:53;151.2;;;111.1;;
41229;SDS011;26964;50.428;19.218;2023-11-19T05:54:53;80.0;;;58.8;;
41229;SDS011;26964;50.428;19.218;2023-11-19T05:55:53;71.6;;;51.7;;
41229;SDS011;26964;50.428;19.218;2023-11-19T05:56:53;45.6;;;31.9;;
41229;SDS011;26964;50.428;19.218;2023-11-19T05:57:53;44.3;;;34.3;;
41229;SDS011;26964;50.428;19.218;2023-11-19T05:58:53;61.2;;;49.3;;
41229;SDS011;26964;50.428;19.218;2023-11-19T05:59:53;78.9;;;64.5;;
41229;SDS011;26964;50.428;19.218;2023-11-19T06:00:53;75.3;;;60.3;;
41229;SDS011;26964;50.428;19.218;2023-11-19T06:01:53;57.3;;;43.0;;
41229;SDS011;26964;50.428;19.218;2023-11-19T06:02:53;49.3;;;38.3;;
41229;SDS011;26964;50.428;19.218;2023-11-19T06:03:53;50.7;;;39.8;;
41229;SDS011;26964;50.428;19.218;2023-11-19T06:04:53;124.5;;;105.5;;